createdAt,value
2019-05-17T00:04:36.363Z,19.97
2019-05-17T00:09:39.776Z,20.60
2019-05-17T00:14:43.061Z,21.13
2019-05-17T00:19:46.590Z,23.03
2019-05-17T00:24:50.125Z,22.63
2019-05-17T00:29:53.668Z,23.00
2019-05-17T00:34:56.971Z,22.83
2019-05-17T00:40:00.371Z,24.17
2019-05-17T00:45:08.301Z,23.30
2019-05-17T00:50:11.666Z,23.77
2019-05-17T00:55:17.307Z,23.17
2019-05-17T01:00:20.474Z,25.40
2019-05-17T01:05:23.773Z,26.63
2019-05-17T01:10:27.286Z,27.10
2019-05-17T01:15:30.613Z,25.73
2019-05-17T01:20:33.899Z,26.90
2019-05-17T01:25:37.523Z,25.77
2019-05-17T01:30:40.808Z,27.80
2019-05-17T01:35:46.497Z,30.13
2019-05-17T01:40:49.277Z,29.70
2019-05-17T01:45:52.578Z,28.37
2019-05-17T01:50:56.821Z,31.67
2019-05-17T01:56:00.210Z,30.70
2019-05-17T02:01:03.593Z,30.23
2019-05-17T02:06:07.588Z,30.47
2019-05-17T02:11:11.049Z,28.77
2019-05-17T02:16:16.386Z,27.93
2019-05-17T02:21:19.361Z,27.20
2019-05-17T02:26:22.982Z,27.70
2019-05-17T02:31:26.838Z,30.23
2019-05-17T02:36:33.052Z,28.57
2019-05-17T02:41:35.572Z,27.63
2019-05-17T02:46:38.863Z,29.40
2019-05-17T02:51:43.085Z,26.87
2019-05-17T02:56:46.554Z,26.77
2019-05-17T03:01:52.705Z,27.70
2019-05-17T03:06:54.877Z,28.83
2019-05-17T03:11:58.407Z,29.03
2019-05-17T03:17:03.231Z,25.17
2019-05-17T03:22:07.963Z,26.37
2019-05-17T03:27:13.413Z,27.13
2019-05-17T03:32:18.028Z,28.87
2019-05-17T03:37:30.004Z,29.67
2019-05-17T03:42:27.012Z,27.93
2019-05-17T03:47:33.311Z,27.67
2019-05-17T03:52:35.568Z,27.87
2019-05-17T03:57:38.867Z,27.17
2019-05-17T04:02:44.458Z,29.10
2019-05-17T04:07:47.432Z,29.93
2019-05-17T04:12:53.063Z,30.50
2019-05-17T04:17:55.987Z,27.73
2019-05-17T04:23:04.000Z,30.83
2019-05-17T04:28:06.092Z,28.27
2019-05-17T04:33:12.640Z,26.23
2019-05-17T04:38:14.407Z,25.57
2019-05-17T04:43:17.953Z,28.00
2019-05-17T04:48:23.284Z,24.80
2019-05-17T04:53:26.354Z,24.87
2019-05-17T04:58:29.650Z,24.37
2019-05-17T05:03:32.945Z,24.70
2019-05-17T05:08:36.232Z,22.60
2019-05-17T05:13:42.420Z,26.17
2019-05-17T05:18:44.542Z,25.47
2019-05-17T05:23:47.845Z,19.60
2019-05-17T05:28:52.911Z,22.03
2019-05-17T05:33:56.271Z,20.17
2019-05-17T05:38:59.564Z,17.23
2019-05-17T05:44:02.873Z,20.27
2019-05-17T05:49:06.417Z,20.57
2019-05-17T05:54:12.106Z,20.27
2019-05-17T05:59:14.718Z,21.80
2019-05-17T06:04:18.687Z,21.87
2019-05-17T06:09:22.398Z,20.40
2019-05-17T06:14:25.732Z,19.43
2019-05-17T06:19:31.395Z,17.73
2019-05-17T06:24:34.288Z,19.47
2019-05-17T06:29:37.653Z,18.90
2019-05-17T06:34:42.237Z,18.33
2019-05-17T06:39:45.644Z,22.83
2019-05-17T06:44:49.184Z,22.67
2019-05-17T06:49:53.549Z,18.53
2019-05-17T06:54:56.942Z,20.90
2019-05-17T07:00:03.164Z,16.47
2019-05-17T07:05:09.937Z,14.87
2019-05-17T07:10:13.439Z,16.30
2019-05-17T07:15:16.892Z,15.57
2019-05-17T07:20:20.449Z,15.63
2019-05-17T07:25:23.714Z,15.47
2019-05-17T07:30:27.317Z,14.07
2019-05-17T07:35:30.609Z,16.77
2019-05-17T07:40:33.905Z,12.53
2019-05-17T07:45:37.186Z,11.50
2019-05-17T07:50:42.034Z,13.80
2019-05-17T07:55:45.312Z,11.77
2019-05-17T08:00:51.211Z,10.67
2019-05-17T08:05:53.616Z,9.20
2019-05-17T08:10:57.134Z,7.00
2019-05-17T08:16:00.403Z,7.47
2019-05-17T08:21:03.688Z,7.50
2019-05-17T08:26:06.968Z,6.77
2019-05-17T08:31:10.317Z,5.47
2019-05-17T08:36:13.592Z,5.20
2019-05-17T08:41:16.878Z,5.57
2019-05-17T08:46:20.405Z,5.57
2019-05-17T08:51:23.682Z,6.80
2019-05-17T08:56:26.995Z,4.80
2019-05-17T09:01:30.339Z,5.80
2019-05-17T09:06:33.875Z,5.13
2019-05-17T09:11:39.433Z,5.30
2019-05-17T09:16:42.155Z,4.67
2019-05-17T09:21:45.428Z,4.93
2019-05-17T09:26:49.266Z,5.83
2019-05-17T09:31:52.814Z,6.37
2019-05-17T09:36:56.089Z,5.80
2019-05-17T09:41:59.716Z,5.43
2019-05-17T09:47:02.953Z,6.13
2019-05-17T09:52:06.233Z,5.90
2019-05-17T09:57:10.027Z,6.40
2019-05-17T10:02:13.337Z,4.53
2019-05-17T10:07:16.606Z,3.90
2019-05-17T10:12:20.363Z,5.10
2019-05-17T10:17:23.741Z,5.63
2019-05-17T10:22:27.015Z,4.20
2019-05-17T10:27:30.559Z,4.93
2019-05-17T10:32:33.822Z,3.87
2019-05-17T10:37:40.345Z,4.70
2019-05-17T10:42:42.587Z,3.73
2019-05-17T10:47:45.849Z,3.50
2019-05-17T10:52:49.130Z,4.33
2019-05-17T10:57:52.633Z,4.83
2019-05-17T11:02:55.910Z,3.40
2019-05-17T11:07:59.882Z,3.73
2019-05-17T11:13:03.597Z,3.40
2019-05-17T11:18:06.941Z,4.03
2019-05-17T11:23:10.214Z,4.27
2019-05-17T11:28:13.731Z,3.93
2019-05-17T11:33:17.013Z,4.73
2019-05-17T11:38:20.287Z,4.90
2019-05-17T11:43:23.563Z,4.37
2019-05-17T11:48:26.851Z,3.97
2019-05-17T11:53:30.127Z,2.67
2019-05-17T11:58:35.783Z,6.03
2019-05-17T12:03:38.478Z,2.83
2019-05-17T12:08:42.280Z,2.10
2019-05-17T12:13:45.516Z,3.57
2019-05-17T12:18:48.798Z,3.23
2019-05-17T12:23:52.323Z,5.43
2019-05-17T12:28:55.841Z,4.47
2019-05-17T12:33:59.125Z,2.87
2019-05-17T12:39:03.151Z,4.50
2019-05-17T12:44:06.657Z,3.13
2019-05-17T12:49:09.950Z,1.73
2019-05-17T12:54:13.219Z,0.80
2019-05-17T12:59:16.505Z,0.90
2019-05-17T13:04:19.766Z,1.03
2019-05-17T13:09:23.044Z,0.60
2019-05-17T13:14:26.317Z,0.77
2019-05-17T13:19:29.849Z,0.70
2019-05-17T13:24:33.120Z,0.93
2019-05-17T13:29:36.397Z,0.80
2019-05-17T13:34:39.929Z,0.60
2019-05-17T13:39:43.214Z,0.93
2019-05-17T13:44:46.487Z,0.47
2019-05-17T13:49:49.998Z,0.60
2019-05-17T13:54:53.275Z,6.70
2019-05-17T13:59:57.706Z,2.70
2019-05-17T14:05:00.978Z,0.93
2019-05-17T14:10:06.043Z,0.80
2019-05-17T14:15:10.966Z,1.90
2019-05-17T14:20:14.517Z,3.53
2019-05-17T14:25:17.876Z,1.30
2019-05-17T14:30:21.629Z,1.83
2019-05-17T14:35:24.889Z,3.23
2019-05-17T14:41:00.673Z,2.90
2019-05-17T14:45:33.485Z,2.23
2019-05-17T14:50:36.745Z,3.17
2019-05-17T14:55:40.021Z,6.30
2019-05-17T15:00:43.285Z,4.80
2019-05-17T15:05:46.564Z,4.00
2019-05-17T15:10:49.837Z,3.57
2019-05-17T15:15:53.115Z,3.10
2019-05-17T15:20:56.639Z,4.77
2019-05-17T15:26:00.155Z,7.07
2019-05-17T15:31:03.467Z,4.20
2019-05-17T15:36:09.387Z,4.13
2019-05-17T15:41:12.914Z,4.53
2019-05-17T15:46:18.118Z,4.43
2019-05-17T15:51:21.403Z,4.00
2019-05-17T15:56:24.683Z,5.63
2019-05-17T16:01:28.533Z,4.40
2019-05-17T16:06:32.048Z,3.83
2019-05-17T16:11:35.562Z,3.53
2019-05-17T16:16:39.103Z,6.30
2019-05-17T16:21:42.381Z,3.50
2019-05-17T16:26:46.932Z,5.13
2019-05-17T16:31:50.483Z,4.63
2019-05-17T16:36:53.746Z,6.43
2019-05-17T16:41:57.094Z,5.40
2019-05-17T16:47:00.617Z,6.57
2019-05-17T16:52:03.904Z,5.10
2019-05-17T16:57:08.033Z,6.03
2019-05-17T17:02:11.633Z,5.77
2019-05-17T17:07:14.925Z,6.20
2019-05-17T17:12:18.240Z,4.47
2019-05-17T17:17:21.532Z,4.40
2019-05-17T17:22:25.176Z,4.90
2019-05-17T17:27:31.349Z,7.07
2019-05-17T17:32:34.651Z,4.67
2019-05-17T17:37:38.180Z,6.27
2019-05-17T17:42:41.509Z,5.43
2019-05-17T17:47:45.112Z,5.47
2019-05-17T17:52:50.753Z,6.20
2019-05-17T17:57:54.039Z,5.83
2019-05-17T18:02:57.701Z,5.47
2019-05-17T18:08:02.577Z,6.03
2019-05-17T18:13:06.180Z,6.03
2019-05-17T18:18:09.462Z,4.90
2019-05-17T18:23:12.820Z,4.80
2019-05-17T18:28:17.892Z,5.53
2019-05-17T18:33:21.211Z,4.40
2019-05-17T18:38:26.304Z,5.30
2019-05-17T18:43:29.594Z,5.77
2019-05-17T18:48:33.113Z,5.27
2019-05-17T18:53:36.672Z,6.97
2019-05-17T18:58:42.623Z,5.33
2019-05-17T19:03:46.162Z,8.67
2019-05-17T19:08:49.506Z,6.40
2019-05-17T19:13:52.800Z,8.90
2019-05-17T19:18:56.339Z,7.23
2019-05-17T19:24:00.473Z,8.70
2019-05-17T19:29:03.762Z,8.33
2019-05-17T19:34:07.288Z,8.97
2019-05-17T19:39:10.849Z,8.60
2019-05-17T19:44:14.134Z,6.13
2019-05-17T19:49:17.675Z,8.60
2019-05-17T19:54:22.878Z,8.37
2019-05-17T19:59:29.183Z,8.13
2019-05-17T20:04:32.471Z,7.67
2019-05-17T20:09:35.778Z,8.37
2019-05-17T20:14:39.485Z,7.47
2019-05-17T20:19:43.012Z,6.93
2019-05-17T20:24:46.537Z,8.67
2019-05-17T20:29:51.202Z,8.80
2019-05-17T20:34:56.088Z,8.87
2019-05-17T20:39:59.630Z,7.60
2019-05-17T20:45:06.796Z,9.17
2019-05-17T20:50:11.619Z,8.63
2019-05-17T20:55:15.072Z,8.57
2019-05-17T21:00:18.592Z,8.67
2019-05-17T21:05:22.105Z,9.10
2019-05-17T21:10:25.386Z,11.50
2019-05-17T21:15:30.811Z,9.30
2019-05-17T21:20:34.348Z,8.90
2019-05-17T21:25:39.248Z,9.07
2019-05-17T21:30:44.001Z,8.97
2019-05-17T21:35:47.501Z,8.80
2019-05-17T21:40:50.764Z,10.80
2019-05-17T21:46:03.824Z,10.17
2019-05-17T21:51:01.713Z,10.03
2019-05-17T21:56:04.934Z,8.70
2019-05-17T22:01:11.392Z,8.60
2019-05-17T22:06:14.985Z,10.53
2019-05-17T22:11:18.710Z,13.00
2019-05-17T22:16:23.633Z,13.00
2019-05-17T22:21:28.806Z,12.10
2019-05-17T22:26:32.341Z,13.30
2019-05-17T22:31:38.867Z,11.43
2019-05-17T22:36:40.970Z,10.13
2019-05-17T22:41:44.500Z,10.83
2019-05-17T22:46:48.024Z,9.80
2019-05-17T22:51:51.569Z,11.53
2019-05-17T22:56:54.852Z,10.50
2019-05-17T23:01:58.134Z,11.57
2019-05-17T23:07:01.643Z,10.90
2019-05-17T23:12:05.165Z,11.73
2019-05-17T23:17:08.729Z,11.67
2019-05-17T23:22:11.982Z,10.50
2019-05-17T23:27:15.260Z,9.73
2019-05-17T23:32:18.779Z,9.97
2019-05-17T23:37:22.310Z,10.10
2019-05-17T23:42:25.588Z,10.00
2019-05-17T23:47:29.105Z,9.70
2019-05-17T23:52:32.387Z,10.70
2019-05-17T23:57:35.673Z,11.20
